Scottish Airport Reports

Civil airfields updated at H+20 and H+50
RAF airfields updated at H+50 only

EGPD - Aberdeen
Distance from station: NNE 19mi, 31km
Updated: 24/10/2017 00:50
Clear
Clear
 Wind from SSW
Wind: SSW 8 mph , 13 km/h
Temperature: 8°C
Wind Chill: 6°C
Dew Point: 6°C
Humidity: 87%
Barometer: 1008 hPa
Clouds: Clear
Visibility: 6 miles , 10 km
2017/10/23 23:50 EGPD 232350Z AUTO 21007KT 9999 NCD 08/06 Q1008 NOSIG
EGPN - Dundee
Distance from station: SW 41mi, 66km
Updated: 23/10/2017 20:20
NOT Current
Partly cloudy
Partly cloudy
 Wind from W
Wind: W 12 mph , 19 km/h
Temperature: 12°C
Dew Point: 11°C
Humidity: 94%
Barometer: 1008 hPa
Clouds: Partly cloudy
Visibility: 6 miles , 10 km
Cloud details: Few Clouds 1000 ft
Partly cloudy 2500 ft
2017/10/23 19:20 EGPN 231920Z 26010KT 9999 FEW010 SCT025 12/11 Q1008
 
EGQS - RAF Lossiemouth
Distance from station: NNW 63mi, 102km
Updated: 24/10/2017 00:50
Few Clouds
Few Clouds
 Wind from SSW
Wind: SSW 8 mph , 13 km/h
Temperature: 8°C
Wind Chill: 6°C
Dew Point: 5°C
Humidity: 82%
Barometer: 1007 hPa
Clouds: Few Clouds
Visibility: 6 miles , 10 km
Cloud details: Few Clouds 4000 ft
2017/10/23 23:50 EGQS 232350Z 20007KT 9999 FEW040 08/05 Q1007 BLU
EGPE - Inverness
Distance from station: WNW 73mi, 117km
Updated: 24/10/2017 00:50
Few Clouds
Few Clouds
 Wind from WSW
Wind: WSW 10 mph , 17 km/h
Temperature: 9°C
Wind Chill: 7°C
Dew Point: 7°C
Humidity: 87%
Barometer: 1007 hPa
Clouds: Few Clouds
Visibility: 6 miles , 10 km
Cloud details: Few Clouds 800 ft
2017/10/23 23:50 EGPE 232350Z 25009KT 9999 FEW008 09/07 Q1007
 
EGPH - Edinburgh
Distance from station: SSW 77mi, 125km
Updated: 24/10/2017 00:50
Clear
Clear
 Wind from SW
Wind: SW 8 mph , 13 km/h
Temperature: 9°C
Wind Chill: 7°C
Dew Point: 8°C
Humidity: 94%
Barometer: 1010 hPa
Summary: Clear
Visibility: greater than 7 miles , 10 km
2017/10/23 23:50 EGPH 232350Z 23007KT CAVOK 09/08 Q1010
EGPC - Wick
Distance from station: NNW 107mi, 172km
Updated: 24/10/2017 00:50
Clear
Clear
 Wind from S
Wind: S 8 mph , 13 km/h
Temperature: 9°C
Wind Chill: 7°C
Dew Point: 7°C
Humidity: 87%
Barometer: 1006 hPa
Clouds: Clear
Visibility: 6 miles , 10 km
2017/10/23 23:50 EGPC 232350Z AUTO 18007KT 150V220 9999 NCD 09/07 Q1006
 
EGPF - Glasgow
Distance from station: SW 107mi, 172km
Updated: 24/10/2017 00:50
Partly cloudy
Partly cloudy
 Wind from SSW
Wind: SSW 5 mph , 7 km/h
Temperature: 10°C
Wind Chill: 9°C
Dew Point: 9°C
Humidity: 94%
Barometer: 1010 hPa
Clouds: Partly cloudy
Visibility: 6 miles , 10 km
Cloud details: Partly cloudy 1200 ft
2017/10/23 23:50 EGPF 232350Z AUTO 21004KT 170V240 9999 SCT012 10/09 Q1010
EGPK - Prestwick
Distance from station: SW 130mi, 209km
Updated: 24/10/2017 00:50
Few Clouds
Few Clouds
 Wind from calm
Wind: Calm
Temperature: 9°C
Dew Point: 8°C
Humidity: 94%
Barometer: 1011 hPa
Clouds: Few Clouds
Visibility: 6 miles , 10 km
Cloud details: Few Clouds 4500 ft
2017/10/23 23:50 EGPK 232350Z 00000KT 9999 FEW045 09/08 Q1011
 
EGPA - Kirkwall, Orkney
Distance from station: N 140mi, 225km
Updated: 24/10/2017 00:50
Clear
Clear
 Wind from SSW
Wind: SSW 12 mph , 19 km/h
Temperature: 9°C
Wind Chill: 6°C
Dew Point: 7°C
Humidity: 87%
Barometer: 1005 hPa
Clouds: Clear
Visibility: 6 miles , 10 km
2017/10/23 23:50 EGPA 232350Z AUTO 20010KT 9999 NCD 09/07 Q1005
EGPO - Stornoway, Outer Hebrides
Distance from station: WNW 169mi, 273km
Updated: 24/10/2017 00:50
Heavy rain, Partly cloudy
Heavy rain, Partly cloudy
 Wind from WSW
Wind: WSW 16 mph , 26 km/h
Temperature: 9°C
Wind Chill: 6°C
Dew Point: 7°C
Humidity: 87%
Barometer: 1004 hPa
Summary: Heavy rain
Clouds: Partly cloudy
Visibility: 1 mile , 1 km
Cloud details: Few Clouds 1500 ft
Partly cloudy 2100 ft
2017/10/23 23:50 EGPO 232350Z AUTO 24014KT 210V270 1200 +RA FEW015/// SCT021/// 09/07 Q1004
 
EGPI - Islay, Inner Hebrides
Distance from station: WSW 172mi, 276km
Updated: 24/10/2017 00:50
Clear
Clear
 Wind from SSE
Wind: SSE 9 mph , 15 km/h
Temperature: 11°C
Dew Point: 10°C
Humidity: 94%
Barometer: 1009 hPa
Clouds: Clear
Visibility: 6 miles , 10 km
2017/10/23 23:50 EGPI 232350Z AUTO 15008KT 9999 NCD 11/10 Q1009
EGPU - Tiree, Inner Hebrides
Distance from station: W 172mi, 276km
Updated: 24/10/2017 00:50
Mostly cloudy
Mostly cloudy
 Wind from varies
Wind: varies 20 mph , 31 km/h
Temperature: 12°C
Dew Point: 10°C
Humidity: 88%
Barometer: 1006 hPa
Clouds: Mostly cloudy
Visibility: 6 miles , 10 km
Cloud details: Few Clouds 1600 ft
Mostly cloudy 2700 ft
2017/10/23 23:50 EGPU 232350Z AUTO VRB17KT 9999 FEW016/// BKN027/// 12/10 Q1006
 
EGPB - Sumburgh, Shetland
Distance from station: NNE 208mi, 332km
Updated: 24/10/2017 00:50
Few Clouds
Few Clouds
 Wind from WSW
Wind: WSW 18 mph , 30 km/h
Temperature: 11°C
Dew Point: 9°C
Humidity: 88%
Barometer: 1005 hPa
Clouds: Few Clouds
Visibility: 6 miles , 10 km
Cloud details: Few Clouds 3100 ft
2017/10/23 23:50 EGPB 232350Z AUTO 24016KT 9999 FEW031/// 11/09 Q1005
EGPM - Scatsa, Shetland
Distance from station: NNE 245mi, 392km
Updated: 24/10/2017 00:50
Clear
Clear
 Wind from WSW
Wind: WSW 16 mph , 26 km/h
Temperature: 10°C
Wind Chill: 7°C
Dew Point: 8°C
Humidity: 88%
Barometer: 1003 hPa
Clouds: Clear
Visibility: 6 miles , 10 km
2017/10/23 23:50 EGPM 232350Z AUTO 24014KT 9999 NCD 10/08 Q1003
-->